createdAt,value
2019-05-21T00:00:45.597Z,2.10
2019-05-21T00:01:45.686Z,1.90
2019-05-21T00:02:45.608Z,1.80
2019-05-21T00:03:45.563Z,1.70
2019-05-21T00:04:45.548Z,2.40
2019-05-21T00:05:45.573Z,2.50
2019-05-21T00:06:45.534Z,1.60
2019-05-21T00:07:45.548Z,2.10
2019-05-21T00:08:45.506Z,2.00
2019-05-21T00:09:45.494Z,1.70
2019-05-21T00:10:45.480Z,2.00
2019-05-21T00:11:45.470Z,1.80
2019-05-21T00:12:45.494Z,1.80
2019-05-21T00:13:45.480Z,1.70
2019-05-21T00:14:45.432Z,2.00
2019-05-21T00:15:45.421Z,1.70
2019-05-21T00:16:45.412Z,1.50
2019-05-21T00:17:45.405Z,1.60
2019-05-21T00:18:45.413Z,2.00
2019-05-21T00:19:45.382Z,2.10
2019-05-21T00:20:45.372Z,1.40
2019-05-21T00:21:45.365Z,2.40
2019-05-21T00:22:45.339Z,1.80
2019-05-21T00:23:45.364Z,2.60
2019-05-21T00:24:45.323Z,0.70
2019-05-21T00:25:45.318Z,1.70
2019-05-21T00:26:45.298Z,2.10
2019-05-21T00:27:45.331Z,1.80
2019-05-21T00:28:45.301Z,2.00
2019-05-21T00:29:45.263Z,1.30
2019-05-21T00:30:45.263Z,1.40
2019-05-21T00:31:45.247Z,1.30
2019-05-21T00:32:45.226Z,1.10
2019-05-21T00:33:45.244Z,1.80
2019-05-21T00:34:45.204Z,1.70
2019-05-21T00:35:45.199Z,1.80
2019-05-21T00:36:45.184Z,1.40
2019-05-21T00:37:45.177Z,1.50
2019-05-21T00:38:45.202Z,1.60
2019-05-21T00:39:45.148Z,1.80
2019-05-21T00:40:45.149Z,1.60
2019-05-21T00:41:45.142Z,1.80
2019-05-21T00:42:45.120Z,1.60
2019-05-21T00:43:45.146Z,2.40
2019-05-21T00:44:45.098Z,1.70
2019-05-21T00:45:45.082Z,1.70
2019-05-21T00:46:45.067Z,1.80
2019-05-21T00:47:45.055Z,2.30
2019-05-21T00:48:45.160Z,1.40
2019-05-21T00:49:45.036Z,1.20
2019-05-21T00:50:45.050Z,1.90
2019-05-21T00:51:45.019Z,1.20
2019-05-21T00:52:45.007Z,1.60
2019-05-21T00:53:45.019Z,1.10
2019-05-21T00:54:45.003Z,1.90
2019-05-21T00:55:44.969Z,1.40
2019-05-21T00:56:44.960Z,1.60
2019-05-21T00:57:44.942Z,2.30
2019-05-21T00:58:44.940Z,1.20
2019-05-21T00:59:44.960Z,1.50
2019-05-21T01:00:44.939Z,1.20
2019-05-21T01:01:44.895Z,2.60
2019-05-21T01:02:44.994Z,1.40
2019-05-21T01:03:44.869Z,2.30
2019-05-21T01:04:59.730Z,1.00
2019-05-21T01:05:45.851Z,1.30
2019-05-21T01:06:44.932Z,1.50
2019-05-21T01:07:44.831Z,1.70
2019-05-21T01:08:44.851Z,1.10
2019-05-21T01:09:44.833Z,1.40
2019-05-21T01:10:44.837Z,1.30
2019-05-21T01:11:44.792Z,1.90
2019-05-21T01:12:44.774Z,1.40
2019-05-21T01:13:44.760Z,2.20
2019-05-21T01:14:44.851Z,2.70
2019-05-21T01:15:44.740Z,2.30
2019-05-21T01:16:44.759Z,1.70
2019-05-21T01:17:44.714Z,2.70
2019-05-21T01:18:44.703Z,1.50
2019-05-21T01:19:44.716Z,1.90
2019-05-21T01:20:44.682Z,1.90
2019-05-21T01:21:44.668Z,2.40
2019-05-21T01:22:44.661Z,2.70
2019-05-21T01:23:44.648Z,1.80
2019-05-21T01:24:44.662Z,1.90
2019-05-21T01:25:44.623Z,2.10
2019-05-21T01:26:44.615Z,1.80
2019-05-21T01:27:44.606Z,1.90
2019-05-21T01:28:44.593Z,1.70
2019-05-21T01:29:44.611Z,2.90
2019-05-21T01:30:44.567Z,1.70
2019-05-21T01:31:44.557Z,1.70
2019-05-21T01:32:44.555Z,2.30
2019-05-21T01:33:44.593Z,2.30
2019-05-21T01:34:44.528Z,2.70
2019-05-21T01:35:44.544Z,1.70
2019-05-21T01:36:44.504Z,2.40
2019-05-21T01:37:44.500Z,1.50
2019-05-21T01:38:44.498Z,2.50
2019-05-21T01:39:44.470Z,1.20
2019-05-21T01:40:44.484Z,2.30
2019-05-21T01:41:44.446Z,1.70
2019-05-21T01:42:44.434Z,2.70
2019-05-21T01:43:44.424Z,2.00
2019-05-21T01:44:44.416Z,1.50
2019-05-21T01:45:44.434Z,2.00
2019-05-21T01:46:44.394Z,2.50
2019-05-21T01:47:44.379Z,1.80
2019-05-21T01:48:44.365Z,2.00
2019-05-21T01:49:44.373Z,2.10
2019-05-21T01:50:44.390Z,1.90
2019-05-21T01:51:44.338Z,2.80
2019-05-21T01:52:44.323Z,1.90
2019-05-21T01:53:44.321Z,1.80
2019-05-21T01:54:44.317Z,2.30
2019-05-21T01:55:44.318Z,2.40
2019-05-21T01:56:44.274Z,2.20
2019-05-21T01:57:44.268Z,1.60
2019-05-21T01:58:44.257Z,2.90
2019-05-21T01:59:44.245Z,1.90
2019-05-21T02:00:44.287Z,2.50
2019-05-21T02:01:44.270Z,1.70
2019-05-21T02:02:44.226Z,2.80
2019-05-21T02:03:44.207Z,1.90
2019-05-21T02:04:44.193Z,3.60
2019-05-21T02:05:44.219Z,2.50
2019-05-21T02:06:44.188Z,2.80
2019-05-21T02:07:44.156Z,2.40
2019-05-21T02:08:44.148Z,1.70
2019-05-21T02:09:44.128Z,3.20
2019-05-21T02:10:44.199Z,2.80
2019-05-21T02:11:44.122Z,2.70
2019-05-21T02:12:44.117Z,2.50
2019-05-21T02:13:44.098Z,2.40
2019-05-21T02:14:44.077Z,3.40
2019-05-21T02:15:44.065Z,3.70
2019-05-21T02:16:44.081Z,2.90
2019-05-21T02:17:44.059Z,2.10
2019-05-21T02:18:44.060Z,2.70
2019-05-21T02:19:44.036Z,2.90
2019-05-21T02:20:44.016Z,3.10
2019-05-21T02:21:44.031Z,1.90
2019-05-21T02:22:44.020Z,2.60
2019-05-21T02:23:44.005Z,2.70
2019-05-21T02:24:43.995Z,2.50
2019-05-21T02:25:43.960Z,2.20
2019-05-21T02:26:43.969Z,2.50
2019-05-21T02:27:43.980Z,2.60
2019-05-21T02:28:43.930Z,3.80
2019-05-21T02:29:43.926Z,2.40
2019-05-21T02:30:43.901Z,3.10
2019-05-21T02:31:43.924Z,2.30
2019-05-21T02:32:43.880Z,3.70
2019-05-21T02:33:43.877Z,3.70
2019-05-21T02:34:43.858Z,2.70
2019-05-21T02:35:53.814Z,2.70
2019-05-21T02:36:44.864Z,1.90
2019-05-21T02:37:43.825Z,2.60
2019-05-21T02:38:43.814Z,2.50
2019-05-21T02:39:43.809Z,2.10
2019-05-21T02:40:43.790Z,4.00
2019-05-21T02:41:43.823Z,2.70
2019-05-21T02:42:43.772Z,3.90
2019-05-21T02:43:43.771Z,2.50
2019-05-21T02:44:43.754Z,2.70
2019-05-21T02:45:43.748Z,2.40
2019-05-21T02:46:43.766Z,3.60
2019-05-21T02:47:43.728Z,2.80
2019-05-21T02:48:43.697Z,3.80
2019-05-21T02:49:43.690Z,4.10
2019-05-21T02:50:43.674Z,3.00
2019-05-21T02:51:43.714Z,1.50
2019-05-21T02:52:43.663Z,3.10
2019-05-21T02:53:43.641Z,3.60
2019-05-21T02:54:43.639Z,3.80
2019-05-21T02:55:43.622Z,3.60
2019-05-21T02:56:43.616Z,2.40
2019-05-21T02:57:43.623Z,4.00
2019-05-21T02:58:43.587Z,4.00
2019-05-21T02:59:43.574Z,3.00
2019-05-21T03:00:43.570Z,4.60
2019-05-21T03:01:43.553Z,4.50
2019-05-21T03:02:43.696Z,3.50
2019-05-21T03:03:43.540Z,3.90
2019-05-21T03:04:43.658Z,3.80
2019-05-21T03:05:43.512Z,3.70
2019-05-21T03:06:43.512Z,3.90
2019-05-21T03:07:43.486Z,3.50
2019-05-21T03:08:43.503Z,2.80
2019-05-21T03:09:43.472Z,4.70
2019-05-21T03:10:43.457Z,4.20
2019-05-21T03:11:43.445Z,3.60
2019-05-21T03:12:43.431Z,4.00
2019-05-21T03:13:43.450Z,3.60
2019-05-21T03:14:43.427Z,3.50
2019-05-21T03:15:43.403Z,2.90
2019-05-21T03:16:43.382Z,3.10
2019-05-21T03:17:43.376Z,3.40
2019-05-21T03:18:43.392Z,2.80
2019-05-21T03:19:43.351Z,3.90
2019-05-21T03:20:43.342Z,4.60
2019-05-21T03:21:43.329Z,2.60
2019-05-21T03:22:43.351Z,3.30
2019-05-21T03:23:43.332Z,3.60
2019-05-21T03:24:43.298Z,4.30
2019-05-21T03:25:43.290Z,3.30
2019-05-21T03:26:43.277Z,4.20
2019-05-21T03:27:43.264Z,2.50
2019-05-21T03:28:43.282Z,4.20
2019-05-21T03:29:43.238Z,3.10
2019-05-21T03:30:43.239Z,2.90
2019-05-21T03:31:43.229Z,2.90
2019-05-21T03:32:43.212Z,2.60
2019-05-21T03:33:43.221Z,2.50
2019-05-21T03:34:43.183Z,3.70
2019-05-21T03:35:43.176Z,3.50
2019-05-21T03:36:43.164Z,4.00
2019-05-21T03:37:43.160Z,4.80
2019-05-21T03:38:43.180Z,3.40
2019-05-21T03:39:43.125Z,3.60
2019-05-21T03:40:43.116Z,3.50
2019-05-21T03:41:43.107Z,2.50
2019-05-21T03:42:43.094Z,3.70
2019-05-21T03:43:43.088Z,3.30
2019-05-21T03:44:58.318Z,4.00
2019-05-21T03:45:44.060Z,2.80
2019-05-21T03:46:43.047Z,3.90
2019-05-21T03:47:43.036Z,4.00
2019-05-21T03:48:43.032Z,3.60
2019-05-21T03:49:43.072Z,4.20
2019-05-21T03:50:43.011Z,3.70
2019-05-21T03:51:43.015Z,4.30
2019-05-21T03:52:42.990Z,3.20
2019-05-21T03:53:42.998Z,2.90
2019-05-21T03:54:42.987Z,3.40
2019-05-21T03:55:42.965Z,2.60
2019-05-21T03:56:42.938Z,3.20
2019-05-21T03:57:42.930Z,3.50
2019-05-21T03:58:42.948Z,3.40
2019-05-21T03:59:42.930Z,3.20
2019-05-21T04:00:42.921Z,3.50
2019-05-21T04:01:42.885Z,4.10
2019-05-21T04:02:42.874Z,2.60
2019-05-21T04:03:42.862Z,3.10
2019-05-21T04:04:42.874Z,2.70
2019-05-21T04:05:42.834Z,4.40
2019-05-21T04:06:51.930Z,2.70
2019-05-21T04:07:43.812Z,2.50
2019-05-21T04:08:42.803Z,3.10
2019-05-21T04:09:43.022Z,2.50
2019-05-21T04:10:42.779Z,2.80
2019-05-21T04:11:42.895Z,3.30
2019-05-21T04:12:42.761Z,1.90
2019-05-21T04:13:42.858Z,3.70
2019-05-21T04:14:42.772Z,2.20
2019-05-21T04:15:42.726Z,3.90
2019-05-21T04:16:42.721Z,2.30
2019-05-21T04:17:42.766Z,3.30
2019-05-21T04:18:42.695Z,3.60
2019-05-21T04:19:42.689Z,3.70
2019-05-21T04:20:42.701Z,3.40
2019-05-21T04:21:42.743Z,2.90
2019-05-21T04:22:42.647Z,3.20
2019-05-21T04:23:42.683Z,3.30
2019-05-21T04:24:42.627Z,4.10
2019-05-21T04:25:42.675Z,4.20
2019-05-21T04:26:42.606Z,3.10
2019-05-21T04:27:42.664Z,3.50
2019-05-21T04:28:42.584Z,2.50
2019-05-21T04:29:42.571Z,3.30
2019-05-21T04:30:42.586Z,3.60
2019-05-21T04:31:42.555Z,2.30
2019-05-21T04:32:42.540Z,2.50
2019-05-21T04:33:42.528Z,4.00
2019-05-21T04:34:42.513Z,3.20
2019-05-21T04:35:42.528Z,2.60
2019-05-21T04:36:42.498Z,4.40
2019-05-21T04:37:42.492Z,2.90
2019-05-21T04:38:42.474Z,2.60
2019-05-21T04:39:42.501Z,3.80
2019-05-21T04:40:42.494Z,2.80
2019-05-21T04:41:42.442Z,3.00
2019-05-21T04:42:42.430Z,2.80
2019-05-21T04:43:42.425Z,3.40
2019-05-21T04:44:42.405Z,3.80
2019-05-21T04:45:42.418Z,2.60
2019-05-21T04:46:42.384Z,3.00
2019-05-21T04:47:42.374Z,3.10
2019-05-21T04:48:42.365Z,2.50
2019-05-21T04:49:42.353Z,2.60
2019-05-21T04:50:42.375Z,3.40
2019-05-21T04:51:42.333Z,3.40
2019-05-21T04:52:42.320Z,2.80
2019-05-21T04:53:42.323Z,2.60
2019-05-21T04:54:42.294Z,3.10
2019-05-21T04:55:42.320Z,3.60
2019-05-21T04:56:42.279Z,3.40
2019-05-21T04:57:42.259Z,2.70
2019-05-21T04:58:42.254Z,3.10
2019-05-21T04:59:42.238Z,3.40
2019-05-21T05:00:42.257Z,2.60
2019-05-21T05:01:42.245Z,2.60
2019-05-21T05:02:42.205Z,3.00
2019-05-21T05:03:42.202Z,2.30
2019-05-21T05:04:42.199Z,2.50
2019-05-21T05:05:42.198Z,3.30
2019-05-21T05:06:42.185Z,3.70
2019-05-21T05:07:42.151Z,2.10
2019-05-21T05:08:42.142Z,3.20
2019-05-21T05:09:42.130Z,4.00
2019-05-21T05:10:42.116Z,3.50
2019-05-21T05:11:42.142Z,3.80
2019-05-21T05:12:42.094Z,3.30
2019-05-21T05:13:42.093Z,3.30
2019-05-21T05:14:42.072Z,2.70
2019-05-21T05:15:42.086Z,3.20
2019-05-21T05:16:42.114Z,3.00
2019-05-21T05:17:42.051Z,2.60
2019-05-21T05:18:42.032Z,2.10
2019-05-21T05:19:42.031Z,3.00
2019-05-21T05:20:42.077Z,3.90
2019-05-21T05:21:42.024Z,2.80
2019-05-21T05:22:42.023Z,1.50
2019-05-21T05:23:41.973Z,3.50
2019-05-21T05:24:41.962Z,2.70
2019-05-21T05:25:41.953Z,1.90
2019-05-21T05:26:42.033Z,2.30
2019-05-21T05:27:41.963Z,2.60
2019-05-21T05:28:41.945Z,2.60
2019-05-21T05:29:41.919Z,2.50
2019-05-21T05:30:41.946Z,2.60
2019-05-21T05:31:41.890Z,2.20
2019-05-21T05:32:41.947Z,2.90
2019-05-21T05:33:41.867Z,2.80
2019-05-21T05:34:41.859Z,2.20
2019-05-21T05:35:41.848Z,2.80
2019-05-21T05:36:41.856Z,2.20
2019-05-21T05:37:45.186Z,2.60
2019-05-21T05:38:41.839Z,3.30
2019-05-21T05:39:41.799Z,3.00
2019-05-21T05:40:41.791Z,2.30
2019-05-21T05:41:41.774Z,2.50
2019-05-21T05:42:41.800Z,2.20
2019-05-21T05:43:41.755Z,2.10
2019-05-21T05:44:41.749Z,2.50
2019-05-21T05:45:41.741Z,2.20
2019-05-21T05:46:41.728Z,2.40
2019-05-21T05:47:41.749Z,2.10
2019-05-21T05:48:41.742Z,2.90
2019-05-21T05:49:41.704Z,2.00
2019-05-21T05:50:41.695Z,1.80
2019-05-21T05:51:41.671Z,3.50
2019-05-21T05:52:41.682Z,1.60
2019-05-21T05:53:41.645Z,3.00
2019-05-21T05:54:41.637Z,1.90
2019-05-21T05:55:41.621Z,2.40
2019-05-21T05:56:41.605Z,1.90
2019-05-21T05:57:41.619Z,2.40
2019-05-21T05:58:41.608Z,1.80
2019-05-21T05:59:41.587Z,1.90
2019-05-21T06:00:41.571Z,2.40
2019-05-21T06:01:41.569Z,3.00
2019-05-21T06:02:41.597Z,2.70
2019-05-21T06:03:41.548Z,2.20
2019-05-21T06:04:41.525Z,2.10
2019-05-21T06:05:41.516Z,2.50
2019-05-21T06:06:41.499Z,2.50
2019-05-21T06:07:41.521Z,2.50
2019-05-21T06:08:41.522Z,1.90
2019-05-21T06:09:41.468Z,2.40
2019-05-21T06:10:41.458Z,2.20
2019-05-21T06:11:41.451Z,1.90
2019-05-21T06:12:41.471Z,1.40
2019-05-21T06:13:41.455Z,1.90
2019-05-21T06:14:41.411Z,2.50
2019-05-21T06:15:41.402Z,2.20
2019-05-21T06:16:41.393Z,1.90
2019-05-21T06:17:41.379Z,2.40
2019-05-21T06:18:41.402Z,1.90
2019-05-21T06:19:41.376Z,2.40
2019-05-21T06:20:41.357Z,2.30
2019-05-21T06:21:41.331Z,3.00
2019-05-21T06:22:41.318Z,2.30
2019-05-21T06:23:41.340Z,2.40
2019-05-21T06:24:41.305Z,2.30
2019-05-21T06:25:41.291Z,2.10
2019-05-21T06:26:41.272Z,2.60
2019-05-21T06:27:41.275Z,2.20
2019-05-21T06:28:41.277Z,1.10
2019-05-21T06:29:41.250Z,1.90
2019-05-21T06:30:41.235Z,1.90
2019-05-21T06:31:41.224Z,2.10
2019-05-21T06:32:41.210Z,1.90
2019-05-21T06:33:41.240Z,2.10
2019-05-21T06:34:41.221Z,1.30
2019-05-21T06:35:41.179Z,2.20
2019-05-21T06:36:41.161Z,1.00
2019-05-21T06:37:41.161Z,1.90
2019-05-21T06:38:41.149Z,2.00
2019-05-21T06:39:41.168Z,1.40
2019-05-21T06:40:41.121Z,1.70
2019-05-21T06:41:41.114Z,1.90
2019-05-21T06:42:41.103Z,1.50
2019-05-21T06:43:41.089Z,1.90
2019-05-21T06:44:41.108Z,1.80
2019-05-21T06:45:41.080Z,2.30
2019-05-21T06:46:41.056Z,1.60
2019-05-21T06:47:41.043Z,1.90
2019-05-21T06:48:41.028Z,1.60
2019-05-21T06:49:41.046Z,2.20
2019-05-21T06:50:41.010Z,1.30
2019-05-21T06:51:41.011Z,1.90
2019-05-21T06:52:41.001Z,1.40
2019-05-21T06:53:40.974Z,1.30
2019-05-21T06:54:40.992Z,1.60
2019-05-21T06:55:40.985Z,1.50
2019-05-21T06:56:40.945Z,2.20
2019-05-21T06:57:40.927Z,1.10
2019-05-21T06:58:40.919Z,2.10
2019-05-21T06:59:40.933Z,1.80
2019-05-21T07:00:40.903Z,1.80
2019-05-21T07:01:40.888Z,1.60
2019-05-21T07:02:40.878Z,1.60
2019-05-21T07:03:40.873Z,1.30
2019-05-21T07:04:40.896Z,1.00
2019-05-21T07:05:56.094Z,2.40
2019-05-21T07:06:44.677Z,1.60
2019-05-21T07:07:40.847Z,1.30
2019-05-21T07:08:40.817Z,2.20
2019-05-21T07:09:40.802Z,1.90
2019-05-21T07:10:40.832Z,1.40
2019-05-21T07:11:40.771Z,0.90
2019-05-21T07:12:40.761Z,1.30
2019-05-21T07:13:40.755Z,1.90
2019-05-21T07:14:40.750Z,2.30
2019-05-21T07:15:40.786Z,1.50
2019-05-21T07:16:40.728Z,1.30
2019-05-21T07:17:40.707Z,0.80
2019-05-21T07:18:41.515Z,1.20
2019-05-21T07:19:40.680Z,1.50
2019-05-21T07:20:40.712Z,1.10
2019-05-21T07:21:40.688Z,0.70
2019-05-21T07:22:40.760Z,1.90
2019-05-21T07:23:40.637Z,0.80
2019-05-21T07:24:40.759Z,1.60
2019-05-21T07:25:40.617Z,1.60
2019-05-21T07:26:40.797Z,2.10
2019-05-21T07:27:40.598Z,1.50
2019-05-21T07:28:40.669Z,1.40
2019-05-21T07:29:40.574Z,1.80
2019-05-21T07:30:40.586Z,1.30
2019-05-21T07:31:40.572Z,1.40
2019-05-21T07:32:40.549Z,1.70
2019-05-21T07:33:40.528Z,0.90
2019-05-21T07:34:40.522Z,1.30
2019-05-21T07:35:40.565Z,1.50
2019-05-21T07:36:40.495Z,1.40
2019-05-21T07:37:40.481Z,1.20
2019-05-21T07:38:52.620Z,1.00
2019-05-21T07:39:41.458Z,1.30
2019-05-21T07:40:40.485Z,1.10
2019-05-21T07:41:40.468Z,1.30
2019-05-21T07:42:40.433Z,1.30
2019-05-21T07:43:40.664Z,1.00
2019-05-21T07:44:40.409Z,0.80
2019-05-21T07:45:40.397Z,1.10
2019-05-21T07:46:40.409Z,0.90
2019-05-21T07:47:40.374Z,1.20
2019-05-21T07:48:40.369Z,1.10
2019-05-21T07:49:40.356Z,0.90
2019-05-21T07:50:40.341Z,1.20
2019-05-21T07:51:40.367Z,1.30
2019-05-21T07:52:40.342Z,2.10
2019-05-21T07:53:40.311Z,2.30
2019-05-21T07:54:40.301Z,2.00
2019-05-21T07:55:40.302Z,1.80
2019-05-21T07:56:40.304Z,1.90
2019-05-21T07:57:40.280Z,1.50
2019-05-21T07:58:40.260Z,1.60
2019-05-21T07:59:40.237Z,2.10
2019-05-21T08:00:40.224Z,1.20
2019-05-21T08:01:40.248Z,1.90
2019-05-21T08:02:40.216Z,1.20
2019-05-21T08:03:40.196Z,1.50
2019-05-21T08:04:40.194Z,2.50
2019-05-21T08:05:40.201Z,2.20
2019-05-21T08:06:40.188Z,2.00
2019-05-21T08:07:40.147Z,2.50
2019-05-21T08:08:40.140Z,2.10
2019-05-21T08:09:40.126Z,1.70
2019-05-21T08:10:40.116Z,0.90
2019-05-21T08:11:40.131Z,1.50
2019-05-21T08:12:40.203Z,1.50
2019-05-21T08:13:40.084Z,2.20
2019-05-21T08:14:40.075Z,1.50
2019-05-21T08:15:40.067Z,1.50
2019-05-21T08:16:40.046Z,1.00
2019-05-21T08:17:40.084Z,1.40
2019-05-21T08:18:40.028Z,1.30
2019-05-21T08:19:40.014Z,1.20
2019-05-21T08:20:40.012Z,1.30
2019-05-21T08:21:39.988Z,1.30
2019-05-21T08:22:40.007Z,1.00
2019-05-21T08:23:40.032Z,1.50
2019-05-21T08:24:39.958Z,1.80
2019-05-21T08:25:40.001Z,0.70
2019-05-21T08:26:39.933Z,1.50
2019-05-21T08:27:40.095Z,1.10
2019-05-21T08:28:39.911Z,1.60
2019-05-21T08:29:39.922Z,1.50
2019-05-21T08:30:39.887Z,1.30
2019-05-21T08:31:39.874Z,1.30
2019-05-21T08:32:39.892Z,2.20
2019-05-21T08:33:40.015Z,1.40
2019-05-21T08:34:39.844Z,1.50
2019-05-21T08:35:39.830Z,1.10
2019-05-21T08:36:39.819Z,1.60
2019-05-21T08:37:39.935Z,1.40
2019-05-21T08:38:39.796Z,1.10
2019-05-21T08:39:39.786Z,1.10
2019-05-21T08:40:39.771Z,2.00
2019-05-21T08:41:39.761Z,1.80
2019-05-21T08:42:39.796Z,1.70
2019-05-21T08:43:39.775Z,1.60
2019-05-21T08:44:39.731Z,1.60
2019-05-21T08:45:39.720Z,1.00
2019-05-21T08:46:39.705Z,2.10
2019-05-21T08:47:39.701Z,1.00
2019-05-21T08:48:39.727Z,1.40
2019-05-21T08:49:39.677Z,1.50
2019-05-21T08:50:39.711Z,1.20
2019-05-21T08:51:39.689Z,1.00
2019-05-21T08:52:39.712Z,1.40
2019-05-21T08:53:39.648Z,1.50
2019-05-21T08:54:39.616Z,1.00
2019-05-21T08:55:39.603Z,1.20
2019-05-21T08:56:39.683Z,0.60
2019-05-21T08:57:39.587Z,1.60
2019-05-21T08:58:39.615Z,1.50
2019-05-21T08:59:39.558Z,1.90
2019-05-21T09:00:39.619Z,1.30
2019-05-21T09:01:39.538Z,1.20
2019-05-21T09:02:39.541Z,1.30
2019-05-21T09:03:39.536Z,2.00
2019-05-21T09:04:46.430Z,1.40
2019-05-21T09:05:40.482Z,1.20
2019-05-21T09:06:39.481Z,1.20
2019-05-21T09:07:39.470Z,1.40
2019-05-21T09:08:39.481Z,1.70
2019-05-21T09:09:50.052Z,1.40
2019-05-21T09:10:40.436Z,1.40
2019-05-21T09:11:39.416Z,2.00
2019-05-21T09:12:39.404Z,1.90
2019-05-21T09:13:39.419Z,1.70
2019-05-21T09:14:39.401Z,2.30
2019-05-21T09:15:39.382Z,1.50
2019-05-21T09:16:39.369Z,1.40
2019-05-21T09:17:39.354Z,1.30
2019-05-21T09:18:39.370Z,1.10
2019-05-21T09:19:39.335Z,1.70
2019-05-21T09:20:39.329Z,1.90
2019-05-21T09:21:39.317Z,1.30
2019-05-21T09:22:39.293Z,1.00
2019-05-21T09:23:39.296Z,1.00
2019-05-21T09:24:39.301Z,1.60
2019-05-21T09:25:39.359Z,0.80
2019-05-21T09:26:39.248Z,1.10
2019-05-21T09:27:39.241Z,1.60
2019-05-21T09:28:39.229Z,0.90
2019-05-21T09:29:39.259Z,1.30
2019-05-21T09:30:39.203Z,1.60
2019-05-21T09:31:39.196Z,1.30
2019-05-21T09:32:39.181Z,1.80
2019-05-21T09:33:39.176Z,1.40
2019-05-21T09:34:48.897Z,1.30
2019-05-21T09:35:40.172Z,1.10
2019-05-21T09:36:39.140Z,1.60
2019-05-21T09:37:39.132Z,2.00
2019-05-21T09:38:39.121Z,1.40
2019-05-21T09:39:39.153Z,1.30
2019-05-21T09:40:39.118Z,0.90
2019-05-21T09:41:39.084Z,1.00
2019-05-21T09:42:39.237Z,0.90
2019-05-21T09:43:39.061Z,1.00
2019-05-21T09:44:39.072Z,0.70
2019-05-21T09:45:39.130Z,1.30
2019-05-21T09:46:39.068Z,1.50
2019-05-21T09:47:39.014Z,0.90
2019-05-21T09:48:39.005Z,1.80
2019-05-21T09:49:39.033Z,1.40
2019-05-21T09:50:39.082Z,1.10
2019-05-21T09:51:38.990Z,1.20
2019-05-21T09:52:38.964Z,1.20
2019-05-21T09:53:38.941Z,1.20
2019-05-21T09:54:38.943Z,0.70
2019-05-21T09:55:38.944Z,0.90
2019-05-21T09:56:38.909Z,1.00
2019-05-21T09:57:38.894Z,1.50
2019-05-21T09:58:38.883Z,1.60
2019-05-21T09:59:38.873Z,1.60
2019-05-21T10:00:38.931Z,1.30
2019-05-21T10:01:38.865Z,1.50
2019-05-21T10:02:38.844Z,1.60
2019-05-21T10:03:38.858Z,0.70
2019-05-21T10:04:38.834Z,0.70
2019-05-21T10:05:38.844Z,1.50
2019-05-21T10:06:38.796Z,1.20
2019-05-21T10:07:40.547Z,1.10
2019-05-21T10:08:38.779Z,0.80
2019-05-21T10:09:38.771Z,1.40
2019-05-21T10:10:38.808Z,0.80
2019-05-21T10:11:38.746Z,1.10
2019-05-21T10:12:38.740Z,0.60
2019-05-21T10:13:38.723Z,0.80
2019-05-21T10:14:38.708Z,1.90
2019-05-21T10:15:38.861Z,1.60
2019-05-21T10:16:38.688Z,1.50
2019-05-21T10:17:38.682Z,1.50
2019-05-21T10:18:38.658Z,1.40
2019-05-21T10:19:38.648Z,1.20
2019-05-21T10:20:38.667Z,1.00
2019-05-21T10:21:38.628Z,1.30
2019-05-21T10:22:38.607Z,1.50
2019-05-21T10:23:38.607Z,1.60
2019-05-21T10:24:38.600Z,1.40
2019-05-21T10:25:38.612Z,1.30
2019-05-21T10:26:38.586Z,1.80
2019-05-21T10:27:38.555Z,1.30
2019-05-21T10:28:38.563Z,1.70
2019-05-21T10:29:38.534Z,1.40
2019-05-21T10:30:38.516Z,1.50
2019-05-21T10:31:38.559Z,1.60
2019-05-21T10:32:38.500Z,2.50
2019-05-21T10:33:38.482Z,1.30
2019-05-21T10:34:38.471Z,0.70
2019-05-21T10:35:38.464Z,1.30
2019-05-21T10:36:38.476Z,2.20
2019-05-21T10:37:52.604Z,1.70
2019-05-21T10:38:39.426Z,1.60
2019-05-21T10:39:38.433Z,1.60
2019-05-21T10:40:38.411Z,1.80
2019-05-21T10:41:38.429Z,1.80
2019-05-21T10:42:38.407Z,1.50
2019-05-21T10:43:38.369Z,1.80
2019-05-21T10:44:38.356Z,1.30
2019-05-21T10:45:38.363Z,1.60
2019-05-21T10:46:38.363Z,1.50
2019-05-21T10:47:38.351Z,1.40
2019-05-21T10:48:38.311Z,1.20
2019-05-21T10:49:38.300Z,1.80
2019-05-21T10:50:38.302Z,1.80
2019-05-21T10:51:38.280Z,1.50
2019-05-21T10:52:38.301Z,1.10
2019-05-21T10:53:38.319Z,1.60
2019-05-21T10:54:38.275Z,2.10
2019-05-21T10:55:38.232Z,1.00
2019-05-21T10:56:47.231Z,1.90
2019-05-21T10:57:39.258Z,1.60
2019-05-21T10:58:38.212Z,2.00
2019-05-21T10:59:38.195Z,2.30
2019-05-21T11:00:38.173Z,1.90
2019-05-21T11:01:38.167Z,1.70
2019-05-21T11:02:38.179Z,1.80
2019-05-21T11:03:38.149Z,1.70
2019-05-21T11:04:38.133Z,1.80
2019-05-21T11:05:38.118Z,1.00
2019-05-21T11:06:38.143Z,1.80
2019-05-21T11:07:38.129Z,1.70
2019-05-21T11:08:38.107Z,2.20
2019-05-21T11:09:38.073Z,1.90
2019-05-21T11:10:38.085Z,1.30
2019-05-21T11:11:38.060Z,2.10
2019-05-21T11:12:38.068Z,1.50
2019-05-21T11:13:38.054Z,1.10
2019-05-21T11:14:38.016Z,1.50
2019-05-21T11:15:38.008Z,1.40
2019-05-21T11:16:38.018Z,1.50
2019-05-21T11:17:50.048Z,1.70
2019-05-21T11:18:38.970Z,1.20
2019-05-21T11:19:37.968Z,1.50
2019-05-21T11:20:37.958Z,1.60
2019-05-21T11:21:37.944Z,1.00
2019-05-21T11:22:37.973Z,1.70
2019-05-21T11:23:37.918Z,2.00
2019-05-21T11:24:37.903Z,2.00
2019-05-21T11:25:37.890Z,0.90
2019-05-21T11:26:37.899Z,1.30
2019-05-21T11:27:37.899Z,2.00
2019-05-21T11:28:37.859Z,1.50
2019-05-21T11:29:37.855Z,1.40
2019-05-21T11:30:37.839Z,1.00
2019-05-21T11:31:37.836Z,1.30
2019-05-21T11:32:37.848Z,1.30
2019-05-21T11:33:37.807Z,1.30
2019-05-21T11:34:37.807Z,1.10
2019-05-21T11:35:37.787Z,2.30
2019-05-21T11:36:37.772Z,1.90
2019-05-21T11:37:37.778Z,1.30
2019-05-21T11:38:40.230Z,1.70
2019-05-21T11:39:37.732Z,1.20
2019-05-21T11:40:37.831Z,1.50
2019-05-21T11:41:37.707Z,1.60
2019-05-21T11:42:37.915Z,1.50
2019-05-21T11:43:37.686Z,1.50
2019-05-21T11:44:37.758Z,1.70
2019-05-21T11:45:37.678Z,0.90
2019-05-21T11:46:37.761Z,1.80
2019-05-21T11:47:37.645Z,1.60
2019-05-21T11:48:37.689Z,1.50
2019-05-21T11:49:37.631Z,1.60
2019-05-21T11:50:37.604Z,1.10
2019-05-21T11:51:37.601Z,2.10
2019-05-21T11:52:37.584Z,1.10
2019-05-21T11:53:37.606Z,1.70
2019-05-21T11:54:37.558Z,1.60
2019-05-21T11:55:37.553Z,1.90
2019-05-21T11:56:37.557Z,0.90
2019-05-21T11:57:37.530Z,0.70
2019-05-21T11:58:39.694Z,1.30
2019-05-21T11:59:37.506Z,1.50
2019-05-21T12:00:37.511Z,0.90
2019-05-21T12:01:37.489Z,1.00
2019-05-21T12:02:37.475Z,2.10
2019-05-21T12:03:37.492Z,1.10
2019-05-21T12:04:37.445Z,1.10
2019-05-21T12:05:37.442Z,1.50
2019-05-21T12:06:37.426Z,1.10
2019-05-21T12:07:37.412Z,1.60
2019-05-21T12:08:37.425Z,0.90
2019-05-21T12:09:37.388Z,1.20
2019-05-21T12:10:37.378Z,1.20
2019-05-21T12:11:37.370Z,0.60
2019-05-21T12:12:37.364Z,1.20
2019-05-21T12:13:37.380Z,1.10
2019-05-21T12:14:37.349Z,1.50
2019-05-21T12:15:37.329Z,1.10
2019-05-21T12:16:37.310Z,1.50
2019-05-21T12:17:37.303Z,1.00
2019-05-21T12:18:37.281Z,1.10
2019-05-21T12:19:37.302Z,1.60
2019-05-21T12:20:37.678Z,0.80
2019-05-21T12:21:37.247Z,1.70
2019-05-21T12:22:37.241Z,1.50
2019-05-21T12:23:37.230Z,1.50
2019-05-21T12:24:37.259Z,0.70
2019-05-21T12:25:37.216Z,1.40
2019-05-21T12:26:37.200Z,1.10
2019-05-21T12:27:37.199Z,1.10
2019-05-21T12:28:37.177Z,1.40
2019-05-21T12:29:37.190Z,1.50
2019-05-21T12:30:37.153Z,1.80
2019-05-21T12:31:37.154Z,1.50
2019-05-21T12:32:37.138Z,1.70
2019-05-21T12:33:37.110Z,1.00
2019-05-21T12:34:39.022Z,1.10
2019-05-21T12:35:37.098Z,1.50
2019-05-21T12:36:37.114Z,1.20
2019-05-21T12:37:37.068Z,2.20
2019-05-21T12:38:37.051Z,1.60
2019-05-21T12:39:37.073Z,1.50
2019-05-21T12:40:37.038Z,1.10
2019-05-21T12:41:37.046Z,1.50
2019-05-21T12:42:37.015Z,1.70
2019-05-21T12:43:37.007Z,0.80
2019-05-21T12:44:37.011Z,0.80
2019-05-21T12:45:36.976Z,1.30
2019-05-21T12:46:36.962Z,1.00
2019-05-21T12:47:37.015Z,1.00
2019-05-21T12:48:36.948Z,1.40
2019-05-21T12:49:37.188Z,1.00
2019-05-21T12:50:36.917Z,1.30
2019-05-21T12:51:36.916Z,2.10
2019-05-21T12:52:36.898Z,1.90
2019-05-21T12:53:37.024Z,1.60
2019-05-21T12:54:37.008Z,0.90
2019-05-21T12:55:36.908Z,1.20
2019-05-21T12:56:40.616Z,1.70
2019-05-21T12:57:36.852Z,1.00
2019-05-21T12:58:36.837Z,1.70
2019-05-21T12:59:36.906Z,1.00
2019-05-21T13:00:36.830Z,1.60
2019-05-21T13:01:36.794Z,0.90
2019-05-21T13:02:36.786Z,1.30
2019-05-21T13:03:36.814Z,0.80
2019-05-21T13:04:36.758Z,1.00
2019-05-21T13:05:36.769Z,1.20
2019-05-21T13:06:36.751Z,1.50
2019-05-21T13:07:36.725Z,2.10
2019-05-21T13:08:36.712Z,1.90
2019-05-21T13:09:36.711Z,1.30
2019-05-21T13:10:36.741Z,1.10
2019-05-21T13:11:36.702Z,1.20
2019-05-21T13:12:36.674Z,1.40
2019-05-21T13:13:36.667Z,1.50
2019-05-21T13:14:36.649Z,1.00
2019-05-21T13:15:36.640Z,1.60
2019-05-21T13:16:36.651Z,1.10
2019-05-21T13:17:36.611Z,0.70
2019-05-21T13:18:36.601Z,1.30